Groomtown, North Carolina
Current Conditions -  °F | °C
As of 3:54 PM on Sunday 21 Dec 2014 (Local Time) from KGSO Reporting Station
Broken Clouds Broken Clouds  
Wind Chill: 47°   Ceiling: 2600
Heat Index: 47°   Visibility: 8mi
Dew Point: 35°   Wind: 0mph
Humidity: 63%   Direction: NA
Pressure: 30.21"   Gusts: NA
Location:  36.011°N, 79.8751°W
Report Text: KGSO 212054Z 00000KT 8SM BKN026 BKN050 08/02 A3021 RMK AO2 SLP231 T00830017 55007
Loading
Personal Weather Stations






























Interactive Weather Map New forecast layout! Learn more

10-Day Weather Forecast

Advertisements
Track Severe Weather on mobile